Bookmark and Share
Track history (hours):
 

Egraine

More information available from US FCC via Universal Licensing System and Coast Guard Vessel Documentation Center.

Last reported at 2013-Jul-06 14:15 UTC. Time now 2014-Apr-19 00:13 UTC.
Position N 41°12' W 071°41'.
Warning: this ship's position is months out of date.

Length 16 m.

Type: Sailing vessel. MMSI: 366834090.

NotesDate/timePositionNaut miles runAvg speedWind from/ knotsBaromVisibWave heightAir tempDewpointWater temp
2013-Jul-06 14:15N 41°12' W 071°41'4 2.3
2013-Jul-06 12:20N 41°12' W 071°35'0 0.0
2013-Jul-06 11:17N 41°12' W 071°35'0 0.0
2013-Jul-06 10:32N 41°12' W 071°35'0 0.0
2013-Jul-06 09:29N 41°12' W 071°35'0 0.0
2013-Jul-06 08:29N 41°12' W 071°35'0 0.0
2013-Jul-06 07:29N 41°12' W 071°35'0 0.0
2013-Jul-06 05:32N 41°12' W 071°35'0 0.0
2013-Jul-06 04:32N 41°12' W 071°35'0 0.0
2013-Jul-06 03:29N 41°12' W 071°35'0 0.0
2013-Jul-06 02:32N 41°12' W 071°35'0 0.0
2013-Jul-06 01:32N 41°12' W 071°35'0 0.0
2013-Jul-06 00:32N 41°12' W 071°35'0 0.0
2013-Jul-05 23:29N 41°12' W 071°35'0 0.0
2013-Jul-05 22:26N 41°12' W 071°35'0 0.0
2013-Jul-05 21:29N 41°12' W 071°35'0 0.0
2013-Jul-05 20:26N 41°12' W 071°35'0 0.0
2013-Jul-05 19:32N 41°12' W 071°35'0 0.1
2013-Jul-05 18:33N 41°12' W 071°35'4 3.8
2013-Jul-05 17:33N 41°15' W 071°35'5 5.0
2013-Jul-05 16:32N 41°20' W 071°33'  
2013-Jun-30 16:33N 41°22' W 071°27'7 6.6
2013-Jun-30 15:33N 41°19' W 071°34'7 7.4
2013-Jun-30 14:33N 41°17' W 071°44'8 8.0
2013-Jun-30 13:33N 41°14' W 071°53'9 8.6
2013-Jun-30 12:33N 41°11' W 072°04'  

Dump ship's entire track history

sailing weather and tide predictions

Egraine — WDA6596 — position and weather